Time;durP1;ratioP1;P1;durP2;ratioP2;P2;SDS_P1;SDS_P2;PMS_P1;PMS_P2;Temp;Humidity;BMP_temperature;BMP_pressure;BME280_temperature;BME280_humidity;BME280_pressure;Samples;Min_cycle;Max_cycle;Signal;HPM_P1;HPM_P2
2022/08/06 00:00:36;;;;;;;2.70;2.50;;;13.60;99.90;;;;;;5077951;28;20461;-55
2022/08/06 00:03:07;;;;;;;3.57;2.43;;;13.60;99.90;;;;;;5077870;28;20732;-50
2022/08/06 00:05:37;;;;;;;5.73;2.63;;;13.60;99.90;;;;;;5077124;28;20481;-54
2022/08/06 00:08:04;;;;;;;5.03;4.40;;;13.50;99.90;;;;;;5074210;28;20767;-55
2022/08/06 00:10:33;;;;;;;3.10;2.00;;;13.40;1.00;;;;;;5076650;28;20456;-52
2022/08/06 00:13:04;;;;;;;5.93;2.33;;;13.40;1.00;;;;;;5076648;28;20541;-52
2022/08/06 00:15:35;;;;;;;2.67;2.10;;;13.40;1.00;;;;;;5076671;28;20460;-54
2022/08/06 00:18:08;;;;;;;5.80;2.20;;;13.40;1.00;;;;;;5074091;28;20489;-48
2022/08/06 00:20:36;;;;;;;3.90;2.67;;;13.30;1.00;;;;;;5076603;28;20464;-50
2022/08/06 00:23:03;;;;;;;3.20;2.90;;;13.20;1.00;;;;;;5077031;28;20904;-54
2022/08/06 00:25:33;;;;;;;2.97;2.40;;;13.20;1.00;;;;;;5076831;28;20453;-57
2022/08/06 00:28:01;;;;;;;3.83;2.50;;;13.20;1.00;;;;;;5076479;28;20560;-53
2022/08/06 00:30:30;;;;;;;4.13;2.23;;;13.20;1.00;;;;;;5071218;28;20453;-52
2022/08/06 00:33:00;;;;;;;3.30;2.07;;;13.20;1.00;;;;;;5076218;28;20798;-53
2022/08/06 00:35:29;;;;;;;7.63;2.50;;;13.10;1.00;;;;;;5073045;28;20503;-49
2022/08/06 00:37:56;;;;;;;3.27;2.67;;;13.10;1.00;;;;;;5075821;28;20489;-56
2022/08/06 00:40:27;;;;;;;7.87;2.50;;;13.10;1.00;;;;;;5076481;28;20518;-53
2022/08/06 00:42:59;;;;;;;5.80;2.60;;;13.00;1.00;;;;;;5076172;28;20457;-56
2022/08/06 00:45:34;;;;;;;3.60;2.20;;;12.90;1.00;;;;;;5076245;28;20941;-55
2022/08/06 00:48:03;;;;;;;4.73;3.03;;;12.80;1.00;;;;;;5076589;28;20449;-50
2022/08/06 00:50:33;;;;;;;3.20;1.97;;;12.80;1.00;;;;;;5073698;28;20459;-57
2022/08/06 00:55:50;;;;;;;12.97;3.23;;;12.80;1.00;;;;;;5075304;28;20458;-53
2022/08/06 00:58:21;;;;;;;4.83;2.30;;;12.70;1.00;;;;;;5075242;28;20446;-48
2022/08/06 01:00:48;;;;;;;4.60;2.63;;;12.60;1.00;;;;;;5072926;28;20460;-57
2022/08/06 01:03:16;;;;;;;7.23;2.40;;;12.50;1.00;;;;;;5076030;28;20740;-51
2022/08/06 01:05:50;;;;;;;3.40;2.80;;;12.50;1.00;;;;;;5075874;28;20937;-54
2022/08/06 01:08:18;;;;;;;7.70;2.70;;;12.50;1.00;;;;;;5075199;28;20431;-54
2022/08/06 01:10:47;;;;;;;4.87;2.33;;;12.50;1.00;;;;;;5075996;28;20476;-55
2022/08/06 01:13:14;;;;;;;5.40;2.50;;;12.50;1.00;;;;;;5075690;28;20463;-50
2022/08/06 01:15:51;;;;;;;3.50;2.83;;;12.50;1.00;;;;;;5076258;28;20540;-50
2022/08/06 01:18:28;;;;;;;2.57;2.37;;;12.60;1.00;;;;;;5074427;28;20495;-56
2022/08/06 01:21:09;;;;;;;5.43;2.77;;;12.50;1.00;;;;;;5069360;28;20453;-55
2022/08/06 01:24:03;;;;;;;4.00;2.50;;;12.50;1.00;;;;;;5077006;28;20767;-53
2022/08/06 01:26:39;;;;;;;3.83;3.03;;;12.40;1.00;;;;;;5076501;28;20893;-51
2022/08/06 01:29:18;;;;;;;6.13;2.77;;;12.20;1.00;;;;;;5076536;28;20515;-52
2022/08/06 01:31:53;;;;;;;3.60;2.57;;;12.10;99.90;;;;;;5076786;28;20485;-57
2022/08/06 01:34:28;;;;;;;3.40;2.83;;;12.10;99.90;;;;;;5076001;28;20493;-55
2022/08/06 01:37:21;;;;;;;3.90;3.30;;;12.10;99.90;;;;;;5074339;28;20550;-51
2022/08/06 01:39:55;;;;;;;5.10;2.83;;;12.00;99.90;;;;;;5072531;28;20535;-59
2022/08/06 01:42:24;;;;;;;3.30;2.77;;;12.10;99.90;;;;;;5075466;28;20835;-54
2022/08/06 01:45:00;;;;;;;4.07;2.80;;;12.00;99.90;;;;;;5072652;28;20432;-53
2022/08/06 01:47:31;;;;;;;3.63;2.80;;;12.00;99.90;;;;;;5075322;28;20423;-50
2022/08/06 01:50:03;;;;;;;4.50;2.70;;;11.90;99.90;;;;;;5078713;28;20463;-50
2022/08/06 01:52:43;;;;;;;4.50;2.83;;;11.80;99.90;;;;;;5076469;28;20536;-54
2022/08/06 01:55:14;;;;;;;4.97;2.70;;;11.80;99.90;;;;;;5076173;28;20455;-52
2022/08/06 01:57:54;;;;;;;4.13;2.73;;;11.80;99.90;;;;;;5078169;28;20482;-55
2022/08/06 02:00:26;;;;;;;4.60;3.60;;;11.70;99.90;;;;;;5077793;28;20457;-57
2022/08/06 02:02:56;;;;;;;6.00;2.93;;;11.70;99.90;;;;;;5079310;28;20458;-56
2022/08/06 02:05:29;;;;;;;3.47;3.17;;;11.70;99.90;;;;;;5079211;28;20428;-57
2022/08/06 02:07:59;;;;;;;3.23;2.87;;;11.70;99.90;;;;;;5077796;28;20949;-55
2022/08/06 02:10:29;;;;;;;4.23;3.00;;;11.70;99.90;;;;;;5077525;28;20496;-54
2022/08/06 02:12:57;;;;;;;4.60;3.80;;;11.60;99.90;;;;;;5077521;28;20495;-50
2022/08/06 02:15:28;;;;;;;3.40;2.70;;;11.50;99.90;;;;;;5077644;28;20469;-55
2022/08/06 02:18:01;;;;;;;3.53;2.80;;;11.50;1.00;;;;;;5077832;28;20489;-55
2022/08/06 02:20:33;;;;;;;5.83;2.97;;;11.40;99.90;;;;;;5078344;28;20461;-52
2022/08/06 02:23:05;;;;;;;4.93;2.80;;;11.30;99.90;;;;;;5078167;28;20452;-54
2022/08/06 02:25:34;;;;;;;4.47;3.50;;;11.30;1.00;;;;;;5076309;28;20453;-49
2022/08/06 02:28:04;;;;;;;5.67;3.37;;;11.30;1.00;;;;;;5077824;28;20450;-52
2022/08/06 02:30:35;;;;;;;3.30;3.00;;;11.30;1.00;;;;;;5076312;28;20511;-52
2022/08/06 02:33:07;;;;;;;4.87;3.67;;;11.30;1.00;;;;;;5079244;28;20484;-54
2022/08/06 02:35:40;;;;;;;5.83;3.67;;;11.30;1.00;;;;;;5080057;28;20469;-52
2022/08/06 02:38:14;;;;;;;3.60;3.20;;;11.20;29.70;;;;;;5079547;28;20468;-58
2022/08/06 02:40:49;;;;;;;3.97;3.20;;;11.20;1.00;;;;;;5078992;28;20566;-51
2022/08/06 02:43:23;;;;;;;5.10;3.20;;;11.10;48.00;;;;;;5078386;28;20939;-50
2022/08/06 02:46:01;;;;;;;4.10;3.20;;;11.10;99.90;;;;;;5076580;28;20909;-52
2022/08/06 02:48:43;;;;;;;5.17;2.90;;;11.10;42.10;;;;;;5076358;28;20434;-50
2022/08/06 02:51:14;;;;;;;4.40;3.00;;;11.10;10.00;;;;;;5076557;28;20483;-52
2022/08/06 02:53:56;;;;;;;4.93;3.43;;;11.00;1.00;;;;;;5077574;28;20879;-49
2022/08/06 02:56:28;;;;;;;7.50;4.57;;;11.00;1.00;;;;;;5077286;28;20449;-53
2022/08/06 02:58:58;;;;;;;5.93;3.40;;;11.00;1.00;;;;;;5076943;28;20804;-52
2022/08/06 03:01:30;;;;;;;5.90;3.40;;;10.90;1.00;;;;;;5077782;28;20466;-49
2022/08/06 03:04:05;;;;;;;4.50;3.70;;;10.90;31.20;;;;;;5076088;28;20453;-49
2022/08/06 03:06:36;;;;;;;4.07;3.47;;;10.90;99.90;;;;;;5078075;28;20511;-55
2022/08/06 03:09:07;;;;;;;3.83;3.33;;;10.90;99.90;;;;;;5078031;28;20785;-49
2022/08/06 03:11:36;;;;;;;5.07;3.30;;;10.90;99.90;;;;;;5077176;28;20560;-50
2022/08/06 03:14:06;;;;;;;4.07;3.13;;;10.90;46.90;;;;;;5075683;28;20910;-51
2022/08/06 03:16:38;;;;;;;4.20;3.23;;;10.90;1.00;;;;;;5077861;28;20428;-51
2022/08/06 03:19:09;;;;;;;5.20;3.50;;;10.90;1.00;;;;;;5077874;28;20544;-57
2022/08/06 03:21:38;;;;;;;3.47;3.17;;;10.80;1.00;;;;;;5075923;28;20838;-56
2022/08/06 03:24:08;;;;;;;7.37;3.33;;;10.80;1.00;;;;;;5078134;28;20959;-52
2022/08/06 03:26:37;;;;;;;3.63;3.03;;;10.70;1.00;;;;;;5078687;28;20460;-53
2022/08/06 03:29:08;;;;;;;3.80;3.13;;;10.70;1.00;;;;;;5079429;28;20428;-56
2022/08/06 03:31:37;;;;;;;4.10;3.33;;;10.70;1.00;;;;;;5078906;28;20950;-54
2022/08/06 03:34:05;;;;;;;3.63;3.30;;;10.70;1.00;;;;;;5079042;28;20464;-53
2022/08/06 03:36:34;;;;;;;7.30;3.17;;;10.70;24.80;;;;;;5079200;28;20464;-53
2022/08/06 03:39:06;;;;;;;4.37;3.33;;;10.60;58.20;;;;;;5078725;28;20515;-49
2022/08/06 03:41:38;;;;;;;6.70;3.47;;;10.60;99.90;;;;;;5078881;28;20465;-50
2022/08/06 03:44:06;;;;;;;6.50;3.27;;;10.60;99.90;;;;;;5078699;28;20891;-58
2022/08/06 03:46:46;;;;;;;8.27;3.30;;;10.60;99.90;;;;;;5079001;28;20493;-59
2022/08/06 03:49:20;;;;;;;6.17;3.20;;;10.50;99.90;;;;;;5078476;28;20560;-53
2022/08/06 03:51:50;;;;;;;4.10;3.07;;;10.50;99.90;;;;;;5078607;28;20436;-51
2022/08/06 03:54:25;;;;;;;5.00;3.40;;;10.50;99.90;;;;;;5078275;28;20580;-54
2022/08/06 03:56:55;;;;;;;3.50;3.20;;;10.50;99.90;;;;;;5078535;28;20435;-52
2022/08/06 03:59:24;;;;;;;4.57;3.00;;;10.60;99.90;;;;;;5078101;28;20909;-52
2022/08/06 04:01:56;;;;;;;3.83;3.00;;;10.50;99.90;;;;;;5078170;28;20462;-53
2022/08/06 04:04:26;;;;;;;5.70;3.27;;;10.50;1.00;;;;;;5078392;28;20564;-56
2022/08/06 04:06:55;;;;;;;4.10;3.47;;;10.50;1.00;;;;;;5078445;28;20750;-53
2022/08/06 04:09:24;;;;;;;5.47;3.43;;;10.50;99.90;;;;;;5076937;28;20461;-55
2022/08/06 04:11:57;;;;;;;4.20;3.17;;;10.40;28.60;;;;;;5076949;28;20923;-54
2022/08/06 04:14:28;;;;;;;3.77;3.27;;;10.30;4.80;;;;;;5078442;28;20467;-54
2022/08/06 04:16:58;;;;;;;3.43;3.00;;;10.40;99.30;;;;;;5078154;28;20511;-56
2022/08/06 04:19:26;;;;;;;4.20;3.63;;;10.30;15.30;;;;;;5077909;28;20466;-53
2022/08/06 04:21:53;;;;;;;4.13;3.73;;;10.30;35.90;;;;;;5078289;28;20924;-56
2022/08/06 04:24:21;;;;;;;3.70;3.00;;;10.20;99.90;;;;;;5078018;28;20484;-56
2022/08/06 04:26:52;;;;;;;3.50;2.83;;;10.30;1.00;;;;;;5078278;28;20485;-58
2022/08/06 04:29:22;;;;;;;3.93;3.53;;;10.20;1.00;;;;;;5077604;28;20440;-55
2022/08/06 04:31:51;;;;;;;3.63;3.23;;;10.20;37.70;;;;;;5077759;28;20458;-54
2022/08/06 04:34:25;;;;;;;4.27;3.50;;;10.20;25.30;;;;;;5078036;28;20464;-56
2022/08/06 04:37:02;;;;;;;6.67;4.00;;;10.20;99.90;;;;;;5078145;28;20479;-59
2022/08/06 04:39:30;;;;;;;8.17;3.50;;;10.20;99.90;;;;;;5077317;28;20436;-53
2022/08/06 04:41:58;;;;;;;4.37;3.23;;;10.30;99.90;;;;;;5077573;28;20563;-58
2022/08/06 04:44:27;;;;;;;4.50;3.90;;;10.30;99.90;;;;;;5077564;28;20527;-54
2022/08/06 04:46:55;;;;;;;4.53;3.60;;;10.30;1.00;;;;;;5076945;28;20555;-52
2022/08/06 04:49:24;;;;;;;6.30;3.40;;;10.40;99.90;;;;;;5077576;28;20522;-57
2022/08/06 04:51:55;;;;;;;5.50;3.40;;;10.40;99.90;;;;;;5077236;28;20440;-58
2022/08/06 04:54:22;;;;;;;4.23;3.53;;;10.40;1.00;;;;;;5077537;28;20539;-58
2022/08/06 04:56:53;;;;;;;5.67;3.53;;;10.40;1.00;;;;;;5077514;28;20823;-54
2022/08/06 04:59:21;;;;;;;5.60;3.83;;;10.40;1.00;;;;;;5076937;28;20531;-56
2022/08/06 05:01:50;;;;;;;8.47;4.67;;;10.50;1.00;;;;;;5077083;28;20471;-53
2022/08/06 05:04:18;;;;;;;6.90;4.10;;;10.50;99.90;;;;;;5076804;28;20555;-52
2022/08/06 05:06:56;;;;;;;5.07;3.97;;;10.60;1.00;;;;;;5076007;28;20461;-57
2022/08/06 05:09:25;;;;;;;6.50;3.97;;;10.60;49.50;;;;;;5075655;28;20535;-58
2022/08/06 05:11:57;;;;;;;6.90;4.13;;;10.70;99.90;;;;;;5075680;28;20466;-53
2022/08/06 05:14:30;;;;;;;4.77;3.83;;;10.80;99.90;;;;;;5076428;28;20841;-52
2022/08/06 05:17:01;;;;;;;7.23;4.57;;;10.80;38.00;;;;;;5076124;28;20461;-55
2022/08/06 05:19:34;;;;;;;5.23;4.73;;;10.80;1.00;;;;;;5075204;28;20583;-58
2022/08/06 05:22:05;;;;;;;5.13;4.57;;;10.90;5.40;;;;;;5074911;28;20727;-52
2022/08/06 05:24:34;;;;;;;5.77;4.90;;;10.90;1.00;;;;;;5075556;28;20470;-53
2022/08/06 05:27:02;;;;;;;5.30;4.53;;;11.00;1.00;;;;;;5075213;28;20908;-54
2022/08/06 05:29:29;;;;;;;6.00;5.40;;;11.20;1.00;;;;;;5075462;28;20428;-57
2022/08/06 05:32:01;;;;;;;10.20;5.80;;;11.20;99.90;;;;;;5076086;28;20514;-58
2022/08/06 05:34:28;;;;;;;6.97;5.87;;;11.20;99.90;;;;;;5076244;28;20522;-53
2022/08/06 05:36:56;;;;;;;5.80;5.20;;;11.30;99.90;;;;;;5076622;28;20538;-56
2022/08/06 05:39:24;;;;;;;6.87;5.00;;;11.40;99.90;;;;;;5075974;28;20479;-51
2022/08/06 05:41:52;;;;;;;4.97;4.27;;;11.50;99.90;;;;;;5074393;28;20483;-56
2022/08/06 05:44:21;;;;;;;5.57;4.13;;;11.60;99.90;;;;;;5072368;28;20554;-52
2022/08/06 05:46:55;;;;;;;6.07;4.90;;;11.60;99.90;;;;;;5075269;28;20515;-56
2022/08/06 05:49:27;;;;;;;7.10;4.07;;;11.80;99.90;;;;;;5073447;28;20499;-52
2022/08/06 05:52:08;;;;;;;5.90;4.67;;;12.00;99.90;;;;;;5075486;28;21001;-57
2022/08/06 05:54:51;;;;;;;6.60;4.30;;;12.20;99.90;;;;;;5074890;28;20473;-53
2022/08/06 05:57:25;;;;;;;4.90;4.40;;;12.40;2.90;;;;;;5075521;28;20450;-58
2022/08/06 05:59:59;;;;;;;5.47;4.57;;;12.50;1.00;;;;;;5076537;28;20423;-56
2022/08/06 06:02:31;;;;;;;4.53;4.10;;;12.70;1.00;;;;;;5076293;28;20833;-52
2022/08/06 06:05:01;;;;;;;6.03;5.00;;;12.80;1.00;;;;;;5076553;28;20461;-54
2022/08/06 06:07:28;;;;;;;4.80;4.30;;;13.00;1.00;;;;;;5076321;28;20465;-56
2022/08/06 06:09:58;;;;;;;6.13;4.53;;;13.30;61.40;;;;;;5077085;28;20461;-54
2022/08/06 06:12:25;;;;;;;5.63;4.57;;;13.60;1.00;;;;;;5076451;28;20461;-56
2022/08/06 06:14:53;;;;;;;5.57;4.47;;;13.90;1.00;;;;;;5076540;28;20457;-54
2022/08/06 06:17:35;;;;;;;4.40;3.90;;;14.20;99.90;;;;;;5076663;28;20910;-56
2022/08/06 06:20:14;;;;;;;4.60;4.10;;;14.50;89.30;;;;;;5076858;28;20493;-54
2022/08/06 06:22:52;;;;;;;4.80;4.03;;;14.90;9.20;;;;;;5076519;28;20490;-56
2022/08/06 06:25:29;;;;;;;5.80;4.07;;;15.30;1.00;;;;;;5076729;28;20745;-57
2022/08/06 06:28:01;;;;;;;5.23;4.13;;;15.50;1.00;;;;;;5076938;28;20527;-57
2022/08/06 06:30:42;;;;;;;5.43;3.43;;;16.10;1.00;;;;;;5076219;28;20436;-57
2022/08/06 06:33:19;;;;;;;7.53;3.43;;;16.40;1.00;;;;;;5076366;28;20460;-56
2022/08/06 06:35:54;;;;;;;5.33;3.80;;;16.60;99.90;;;;;;5079645;28;20478;-54
2022/08/06 06:38:39;;;;;;;4.47;3.70;;;16.80;99.90;;;;;;5079633;28;20960;-55
2022/08/06 06:41:14;;;;;;;3.43;3.13;;;17.10;99.90;;;;;;5080298;28;20506;-54
2022/08/06 06:43:49;;;;;;;4.90;3.63;;;17.40;99.90;;;;;;5080216;28;20468;-57
2022/08/06 06:46:25;;;;;;;3.40;2.90;;;17.70;99.90;;;;;;5079714;28;20764;-57
2022/08/06 06:48:57;;;;;;;5.33;2.90;;;17.80;99.90;;;;;;5079395;28;20558;-56
2022/08/06 06:51:31;;;;;;;7.10;2.23;;;18.00;99.90;;;;;;5079457;28;20559;-56
2022/08/06 06:54:00;;;;;;;2.77;2.27;;;18.20;99.90;;;;;;5079730;28;20461;-58
2022/08/06 06:56:40;;;;;;;5.97;1.90;;;17.60;99.90;;;;;;5079066;28;20545;-57
2022/08/06 06:59:14;;;;;;;2.03;1.63;;;17.50;99.90;;;;;;5079907;28;20957;-58
2022/08/06 07:01:47;;;;;;;4.13;1.90;;;17.10;99.90;;;;;;5077665;28;20508;-58
2022/08/06 07:04:17;;;;;;;3.23;1.87;;;17.00;99.90;;;;;;5075070;28;20454;-59
2022/08/06 07:06:46;;;;;;;2.70;2.00;;;17.60;99.90;;;;;;5077698;28;20948;-59
2022/08/06 07:09:18;;;;;;;4.50;2.10;;;17.80;99.90;;;;;;5075038;28;20449;-59
2022/08/06 07:11:50;;;;;;;1.73;1.57;;;18.10;99.90;;;;;;5078574;28;20838;-59
2022/08/06 07:14:23;;;;;;;4.77;1.90;;;18.60;99.90;;;;;;5077635;28;20745;-59
2022/08/06 07:16:55;;;;;;;3.10;1.90;;;18.80;99.90;;;;;;5075007;28;20424;-58
2022/08/06 07:19:27;;;;;;;3.13;2.00;;;18.60;99.90;;;;;;5078697;28;21196;-59
2022/08/06 07:21:54;;;;;;;3.77;2.17;;;17.90;99.90;;;;;;5076090;28;20488;-59
2022/08/06 07:24:24;;;;;;;3.57;2.30;;;18.00;99.90;;;;;;5077642;28;20460;-59
2022/08/06 07:26:58;;;;;;;10.73;2.13;;;18.30;99.90;;;;;;5075292;28;20465;-59
2022/08/06 07:29:27;;;;;;;2.07;1.67;;;18.70;99.90;;;;;;5077688;28;20752;-59
2022/08/06 07:32:00;;;;;;;3.00;1.70;;;18.50;99.90;;;;;;5077635;28;20557;-59
2022/08/06 07:34:28;;;;;;;3.47;1.90;;;18.30;99.90;;;;;;5076155;28;20538;-60
2022/08/06 07:36:57;;;;;;;2.40;1.63;;;18.30;99.90;;;;;;5076725;28;20432;-59
2022/08/06 07:39:31;;;;;;;3.07;2.03;;;18.50;99.90;;;;;;5077053;28;20987;-59
2022/08/06 07:42:07;;;;;;;2.70;1.50;;;18.60;99.90;;;;;;5076650;28;20469;-59
2022/08/06 07:44:38;;;;;;;2.20;1.80;;;18.90;99.90;;;;;;5075740;28;20515;-59
2022/08/06 07:47:06;;;;;;;1.87;1.57;;;19.20;99.90;;;;;;5076446;28;20544;-59
2022/08/06 07:49:42;;;;;;;2.03;1.70;;;19.10;99.90;;;;;;5077377;28;20836;-59
2022/08/06 07:52:15;;;;;;;1.93;1.67;;;19.50;99.90;;;;;;5073966;28;20457;-60
2022/08/06 07:54:44;;;;;;;1.70;1.50;;;19.60;99.90;;;;;;5076576;28;21002;-59
2022/08/06 07:57:16;;;;;;;2.10;1.80;;;19.20;99.90;;;;;;5074478;28;20530;-58
2022/08/06 07:59:45;;;;;;;2.43;1.50;;;18.90;99.90;;;;;;5075826;28;20587;-58
2022/08/06 08:02:16;;;;;;;3.77;1.80;;;19.20;99.90;;;;;;5076773;28;20868;-56
2022/08/06 08:07:33;;;;;;;1.73;1.50;;;19.60;99.90;;;;;;5077185;28;20436;-52
2022/08/06 08:10:04;;;;;;;3.33;1.60;;;19.70;99.90;;;;;;5078647;28;20938;-55
2022/08/06 08:12:33;;;;;;;2.07;1.63;;;19.70;99.90;;;;;;5076989;28;20461;-51
2022/08/06 08:15:02;;;;;;;1.97;1.77;;;19.50;99.90;;;;;;5077600;28;20843;-50
2022/08/06 08:17:29;;;;;;;2.03;1.80;;;19.60;99.90;;;;;;5078228;28;20745;-56
2022/08/06 08:20:04;;;;;;;1.80;1.43;;;19.90;99.90;;;;;;5075358;28;20493;-55
2022/08/06 08:22:31;;;;;;;1.83;1.60;;;20.20;99.90;;;;;;5057449;28;20458;-59
2022/08/06 08:24:58;;;;;;;1.93;1.47;;;20.60;99.90;;;;;;5062502;28;20526;-58
2022/08/06 08:27:35;;;;;;;3.07;1.80;;;20.00;99.90;;;;;;5076440;28;20428;-59
2022/08/06 08:30:03;;;;;;;2.00;1.63;;;20.30;99.90;;;;;;5075026;28;20445;-54
2022/08/06 08:32:30;;;;;;;2.27;1.90;;;20.50;99.90;;;;;;5075486;28;20540;-55
2022/08/06 08:34:59;;;;;;;3.73;2.10;;;20.70;99.90;;;;;;5076836;28;20908;-54
2022/08/06 08:37:27;;;;;;;2.30;2.07;;;21.20;99.90;;;;;;5076678;28;20757;-54
2022/08/06 08:39:56;;;;;;;3.00;2.00;;;19.90;99.90;;;;;;5076550;28;20518;-56
2022/08/06 08:42:32;;;;;;;3.90;1.60;;;20.20;99.90;;;;;;5076138;28;20465;-50
2022/08/06 08:45:01;;;;;;;2.53;1.50;;;20.60;99.90;;;;;;5074418;28;20559;-58
2022/08/06 08:47:32;;;;;;;5.43;2.20;;;20.30;99.90;;;;;;5075709;28;20522;-59
2022/08/06 08:50:02;;;;;;;5.70;2.00;;;20.20;99.90;;;;;;5075676;28;20788;-53
2022/08/06 08:52:34;;;;;;;3.00;1.87;;;21.20;99.90;;;;;;5075985;28;20932;-54
2022/08/06 08:55:04;;;;;;;2.57;1.50;;;21.80;99.90;;;;;;5075725;28;20492;-52
2022/08/06 08:57:33;;;;;;;2.50;1.53;;;22.30;99.90;;;;;;5074135;28;20475;-54
2022/08/06 09:00:04;;;;;;;2.50;1.73;;;22.80;99.90;;;;;;5078382;28;20938;-56
2022/08/06 09:02:31;;;;;;;1.90;1.70;;;23.20;99.90;;;;;;5077237;28;20489;-56
2022/08/06 09:05:06;;;;;;;2.20;1.70;;;22.60;99.90;;;;;;5087462;28;20431;-55
2022/08/06 09:07:38;;;;;;;4.13;1.90;;;22.10;99.90;;;;;;5095727;28;20808;-56
2022/08/06 09:10:07;;;;;;;1.77;1.33;;;20.90;99.90;;;;;;5093687;28;20888;-57
2022/08/06 09:12:38;;;;;;;2.33;1.77;;;20.00;99.90;;;;;;5077037;28;20461;-54
2022/08/06 09:15:12;;;;;;;2.00;1.77;;;19.90;99.90;;;;;;5072476;28;20471;-55
2022/08/06 09:17:39;;;;;;;2.57;2.03;;;20.20;99.90;;;;;;5090211;28;20489;-55
2022/08/06 09:20:10;;;;;;;2.40;2.17;;;20.10;99.90;;;;;;5090947;28;20506;-59
2022/08/06 09:22:40;;;;;;;2.33;1.67;;;21.00;99.90;;;;;;5095782;28;20478;-59
2022/08/06 09:25:42;;;;;;;3.23;1.70;;;21.50;99.90;;;;;;5080515;28;20472;-60
2022/08/06 09:28:26;;;;;;;2.00;1.63;;;21.30;99.90;;;;;;5077832;28;20559;-59
2022/08/06 09:31:01;;;;;;;2.17;1.77;;;21.70;99.90;;;;;;5087211;28;20555;-59
2022/08/06 09:33:30;;;;;;;2.30;1.87;;;22.70;99.90;;;;;;5091076;28;20546;-56
2022/08/06 09:36:08;;;;;;;1.90;1.80;;;22.20;99.90;;;;;;5086805;28;20469;-54
2022/08/06 09:38:47;;;;;;;5.27;2.00;;;20.60;99.90;;;;;;5072632;28;20483;-57
2022/08/06 09:41:18;;;;;;;3.37;1.80;;;20.70;99.90;;;;;;5086053;28;20543;-55
2022/08/06 09:43:48;;;;;;;3.23;1.70;;;20.70;99.90;;;;;;5090526;28;20460;-56
2022/08/06 09:46:17;;;;;;;2.23;1.40;;;20.40;99.90;;;;;;5078751;28;20442;-51
2022/08/06 09:48:58;;;;;;;4.60;1.73;;;19.50;99.90;;;;;;5074422;28;20447;-51
2022/08/06 09:51:30;;;;;;;1.70;1.50;;;19.60;99.90;;;;;;5087673;28;20438;-55
2022/08/06 09:54:02;;;;;;;1.53;1.43;;;19.90;99.90;;;;;;5078252;28;20464;-54
2022/08/06 09:56:32;;;;;;;2.33;1.47;;;19.10;99.90;;;;;;5075527;28;20448;-55
2022/08/06 09:59:00;;;;;;;2.43;1.67;;;19.10;99.90;;;;;;5068415;28;20473;-53
2022/08/06 10:01:38;;;;;;;1.63;1.47;;;19.10;99.90;;;;;;5066990;28;20556;-54
2022/08/06 10:04:06;;;;;;;1.90;1.70;;;19.90;99.90;;;;;;5056271;28;20441;-54
2022/08/06 10:06:35;;;;;;;1.77;1.50;;;20.60;99.90;;;;;;5060113;28;20810;-54
2022/08/06 10:09:09;;;;;;;1.93;1.50;;;20.40;99.90;;;;;;5096876;28;20439;-55
2022/08/06 10:11:41;;;;;;;1.60;1.50;;;20.50;99.90;;;;;;5088471;28;20488;-53
2022/08/06 10:14:22;;;;;;;2.73;1.40;;;20.40;99.90;;;;;;5079885;28;20467;-55
2022/08/06 10:19:48;;;;;;;2.30;1.40;;;21.70;99.90;;;;;;5069480;28;20554;-57
2022/08/06 10:22:18;;;;;;;1.77;1.43;;;24.10;99.90;;;;;;5068161;28;20495;-55
2022/08/06 10:24:48;;;;;;;1.37;1.27;;;23.70;99.90;;;;;;5053045;28;20501;-56
2022/08/06 10:27:22;;;;;;;1.40;1.30;;;23.40;99.90;;;;;;5063845;28;20443;-56
2022/08/06 10:29:52;;;;;;;1.60;1.50;;;22.60;99.90;;;;;;5050880;28;20911;-55
2022/08/06 10:32:27;;;;;;;1.57;1.40;;;22.80;99.90;;;;;;5056729;28;20462;-57
2022/08/06 10:34:58;;;;;;;1.90;1.40;;;22.30;99.90;;;;;;5070794;28;20453;-53
2022/08/06 10:37:45;;;;;;;2.17;1.73;;;22.60;99.90;;;;;;5059537;28;20441;-55
2022/08/06 10:40:21;;;;;;;1.73;1.53;;;22.50;99.90;;;;;;5080406;27;20753;-56
2022/08/06 10:42:49;;;;;;;1.87;1.70;;;22.20;99.90;;;;;;5050959;28;20556;-58
2022/08/06 10:45:16;;;;;;;1.70;1.60;;;22.50;99.90;;;;;;5054401;27;20772;-59
2022/08/06 10:47:46;;;;;;;4.00;1.90;;;23.20;99.90;;;;;;5052120;27;20502;-57
2022/08/06 10:50:16;;;;;;;2.53;1.50;;;23.60;99.90;;;;;;5045053;28;20475;-60
2022/08/06 10:52:46;;;;;;;1.90;1.47;;;24.40;99.90;;;;;;5035168;28;20476;-58
2022/08/06 10:55:14;;;;;;;2.50;1.50;;;24.90;99.90;;;;;;5055144;28;20477;-59
2022/08/06 10:57:42;;;;;;;3.73;1.40;;;25.20;99.90;;;;;;5059318;28;20473;-59
2022/08/06 11:00:15;;;;;;;1.70;1.30;;;25.50;99.90;;;;;;5051227;28;21137;-59
2022/08/06 11:02:54;;;;;;;1.90;1.50;;;25.60;99.90;;;;;;5050805;28;20549;-57
2022/08/06 11:05:28;;;;;;;1.23;1.13;;;24.70;99.90;;;;;;5049627;28;20433;-59
2022/08/06 11:08:15;;;;;;;1.67;1.57;;;25.60;99.90;;;;;;5048368;28;20564;-59
2022/08/06 11:10:56;;;;;;;1.60;1.50;;;26.50;99.90;;;;;;5030790;28;20724;-54
2022/08/06 11:13:32;;;;;;;2.70;1.67;;;27.10;99.90;;;;;;5048894;28;20458;-55
2022/08/06 11:16:01;;;;;;;1.60;1.40;;;26.70;99.90;;;;;;5042647;28;20470;-54
2022/08/06 11:18:29;;;;;;;2.53;1.43;;;26.10;99.90;;;;;;5045876;28;21017;-55
2022/08/06 11:21:01;;;;;;;1.93;1.50;;;25.30;99.90;;;;;;5049027;28;20503;-57
2022/08/06 11:23:32;;;;;;;1.90;1.80;;;25.40;99.90;;;;;;5048410;28;20433;-56
2022/08/06 11:26:01;;;;;;;2.80;1.63;;;25.50;99.90;;;;;;5046794;28;20471;-57
2022/08/06 11:29:01;;;;;;;1.60;1.50;;;26.20;99.90;;;;;;5046603;28;20512;-57
2022/08/06 11:31:41;;;;;;;3.10;1.80;;;26.80;99.90;;;;;;5035070;28;20939;-55
2022/08/06 11:34:14;;;;;;;1.57;1.37;;;27.00;99.90;;;;;;5032709;28;20471;-58
2022/08/06 11:36:48;;;;;;;2.60;1.40;;;27.40;99.90;;;;;;5034264;28;20456;-61
2022/08/06 11:39:24;;;;;;;1.33;1.23;;;27.90;99.90;;;;;;5034375;28;20574;-60
2022/08/06 11:41:55;;;;;;;1.40;1.30;;;27.70;99.90;;;;;;5036025;28;20463;-60
2022/08/06 11:44:25;;;;;;;2.20;1.63;;;26.80;99.90;;;;;;5035791;28;20463;-59
2022/08/06 11:47:12;;;;;;;1.90;1.80;;;26.00;99.90;;;;;;5034762;28;20550;-60
2022/08/06 11:49:41;;;;;;;1.33;1.23;;;25.80;99.90;;;;;;5030896;28;20467;-55
2022/08/06 11:52:41;;;;;;;3.10;1.90;;;25.80;99.90;;;;;;5035132;28;20550;-60
2022/08/06 11:55:14;;;;;;;1.60;1.50;;;25.30;99.90;;;;;;5031085;28;20470;-57
2022/08/06 11:57:43;;;;;;;1.60;1.50;;;24.30;99.90;;;;;;5033162;28;20475;-58
2022/08/06 12:00:25;;;;;;;3.40;2.00;;;24.70;99.90;;;;;;5035352;28;20751;-58
2022/08/06 12:02:59;;;;;;;1.77;1.67;;;25.10;99.90;;;;;;5033671;28;20477;-58
2022/08/06 12:05:47;;;;;;;1.77;1.60;;;24.90;99.90;;;;;;5037178;28;20466;-56
2022/08/06 12:08:28;;;;;;;3.00;1.80;;;23.50;99.90;;;;;;5035106;28;20895;-57
2022/08/06 12:11:35;;;;;;;2.27;2.03;;;23.00;99.90;;;;;;5035703;28;20473;-54
2022/08/06 12:14:27;;;;;;;2.03;1.50;;;24.50;99.90;;;;;;5038191;28;20550;-61
2022/08/06 12:16:57;;;;;;;1.93;1.60;;;25.70;99.90;;;;;;5041072;27;20927;-61
2022/08/06 12:19:24;;;;;;;1.40;1.30;;;26.80;99.90;;;;;;5049849;28;20476;-60
2022/08/06 12:21:55;;;;;;;1.90;1.80;;;27.00;99.90;;;;;;5053519;28;20552;-60
2022/08/06 12:24:28;;;;;;;1.50;1.33;;;27.30;99.90;;;;;;5043633;28;20491;-54
2022/08/06 12:26:57;;;;;;;2.70;1.33;;;26.60;99.90;;;;;;5040681;28;20982;-57
2022/08/06 12:29:37;;;;;;;1.40;1.30;;;25.90;99.90;;;;;;5048205;28;20591;-57
2022/08/06 12:32:21;;;;;;;1.77;1.67;;;24.10;99.90;;;;;;5047613;28;20475;-57
2022/08/06 12:34:54;;;;;;;1.93;1.67;;;23.60;99.90;;;;;;5034518;28;20467;-56
2022/08/06 12:37:41;;;;;;;2.50;2.10;;;24.90;99.90;;;;;;5048745;28;20539;-57
2022/08/06 12:40:29;;;;;;;1.73;1.50;;;24.60;99.90;;;;;;5047593;28;20509;-54
2022/08/06 12:43:12;;;;;;;2.70;1.90;;;24.80;99.90;;;;;;5014947;28;20931;-53
2022/08/06 12:45:41;;;;;;;1.60;1.50;;;24.10;99.90;;;;;;5032985;28;20471;-56
2022/08/06 12:48:15;;;;;;;2.80;1.93;;;23.60;99.90;;;;;;5034039;28;20456;-56
2022/08/06 12:50:43;;;;;;;2.13;1.93;;;22.90;99.90;;;;;;5015685;28;20873;-57
2022/08/06 12:53:15;;;;;;;1.87;1.50;;;23.10;99.90;;;;;;5015615;28;20567;-56
2022/08/06 12:55:52;;;;;;;1.83;1.50;;;24.20;99.90;;;;;;5024385;28;20822;-56
2022/08/06 12:58:24;;;;;;;1.80;1.40;;;25.20;99.90;;;;;;5034901;28;20499;-55
2022/08/06 13:00:55;;;;;;;1.70;1.60;;;26.20;99.90;;;;;;5034338;28;20510;-56
2022/08/06 13:03:27;;;;;;;1.53;1.43;;;25.50;99.90;;;;;;5041768;27;20471;-57
2022/08/06 13:05:59;;;;;;;2.23;1.33;;;26.50;99.90;;;;;;5033096;28;20796;-57
2022/08/06 13:08:27;;;;;;;1.83;1.60;;;27.50;99.90;;;;;;5033613;28;20888;-57
2022/08/06 13:10:57;;;;;;;1.80;1.50;;;28.10;99.90;;;;;;5034409;28;20473;-56
2022/08/06 13:13:41;;;;;;;1.53;1.43;;;26.60;99.90;;;;;;5033803;28;20506;-56
2022/08/06 13:16:12;;;;;;;1.50;1.40;;;25.70;99.90;;;;;;5015061;28;20751;-57
2022/08/06 13:18:41;;;;;;;1.80;1.70;;;25.60;99.90;;;;;;5019615;28;20503;-57
2022/08/06 13:21:21;;;;;;;1.53;1.43;;;25.90;99.90;;;;;;5033234;28;20470;-57
2022/08/06 13:23:53;;;;;;;2.20;2.00;;;26.50;99.90;;;;;;5033672;28;20462;-57
2022/08/06 13:26:22;;;;;;;1.50;1.40;;;26.90;99.90;;;;;;5033556;28;20491;-57